Capitol Logistics 348




KMHT
Manchester Airport
Manchester, New Hampshire
KBWI
Baltimore/Washington International Thurgood Marshall Airport
Baltimore, Maryland

Activity Log

Date Flight Route Aircraft Duration
04/11/2021 CPX348 PPORT3 NELIE Q75 MXE V378 NUGGY TRISH3 B752 1h 29m

Route Details

Aircraft Information
Primary: Boeing 737-800BCF
Backup: Boeing 757-200SF
Route Data
Distance: 327nm
Duration: 1h 12m
Recm'd Route: PPORT3 NELIE Q75 MXE V378 NUGGY TRISH3
Origin Wx: KMHT 141853Z VRB03KT 10SM FEW055 18/04 A2994 RMK AO2 SLP150 T01780044
Dest. Wx: KBWI 141927Z 19004KT 2SM -RA BR SCT025 BKN055 OVC080 15/12 A2999 RMK AO2 SFC VIS 5 P0002 T01500117
Notes: